sensor_id;sensor_type;location;lat;lon;timestamp;pressure;altitude;pressure_sealevel;temperature;humidity
74270;BME280;62754;48.252;11.654;2023-03-23T00:02:08;95667.31;;;10.39;55.81
74270;BME280;62754;48.252;11.654;2023-03-23T00:04:34;95666.13;;;10.43;55.76
74270;BME280;62754;48.252;11.654;2023-03-23T00:07:00;95662.88;;;10.41;55.75
74270;BME280;62754;48.252;11.654;2023-03-23T00:09:26;95669.91;;;10.39;55.96
74270;BME280;62754;48.252;11.654;2023-03-23T00:11:54;95664.59;;;10.31;56.20
74270;BME280;62754;48.252;11.654;2023-03-23T00:14:20;95664.84;;;10.28;56.42
74270;BME280;62754;48.252;11.654;2023-03-23T00:16:46;95663.63;;;10.23;56.53
74270;BME280;62754;48.252;11.654;2023-03-23T00:19:12;95672.22;;;10.12;56.91
74270;BME280;62754;48.252;11.654;2023-03-23T00:21:38;95667.06;;;10.12;56.86
74270;BME280;62754;48.252;11.654;2023-03-23T00:26:37;95656.38;;;10.07;57.05
74270;BME280;62754;48.252;11.654;2023-03-23T00:29:04;95662.34;;;10.08;57.28
74270;BME280;62754;48.252;11.654;2023-03-23T00:31:30;95663.28;;;10.07;57.25
74270;BME280;62754;48.252;11.654;2023-03-23T00:33:58;95664.47;;;10.02;57.60
74270;BME280;62754;48.252;11.654;2023-03-23T00:36:24;95670.56;;;10.01;58.06
74270;BME280;62754;48.252;11.654;2023-03-23T00:38:50;95665.69;;;9.98;57.87
74270;BME280;62754;48.252;11.654;2023-03-23T00:41:15;95659.81;;;9.87;58.01
74270;BME280;62754;48.252;11.654;2023-03-23T00:43:41;95662.94;;;9.90;58.08
74270;BME280;62754;48.252;11.654;2023-03-23T00:46:07;95671.91;;;9.96;58.24
74270;BME280;62754;48.252;11.654;2023-03-23T00:48:33;95668.19;;;9.89;58.42
74270;BME280;62754;48.252;11.654;2023-03-23T00:50:58;95660.63;;;9.87;58.78
74270;BME280;62754;48.252;11.654;2023-03-23T00:53:24;95658.06;;;9.87;58.93
74270;BME280;62754;48.252;11.654;2023-03-23T00:55:50;95664.09;;;9.77;59.09
74270;BME280;62754;48.252;11.654;2023-03-23T00:58:16;95656.44;;;9.66;59.41
74270;BME280;62754;48.252;11.654;2023-03-23T01:00:42;95673.41;;;9.68;59.68
74270;BME280;62754;48.252;11.654;2023-03-23T01:03:09;95663.22;;;9.67;60.03
74270;BME280;62754;48.252;11.654;2023-03-23T01:05:36;95662.03;;;9.71;59.31
74270;BME280;62754;48.252;11.654;2023-03-23T01:08:02;95656.78;;;9.72;59.43
74270;BME280;62754;48.252;11.654;2023-03-23T01:10:28;95653.41;;;9.51;61.23
74270;BME280;62754;48.252;11.654;2023-03-23T01:12:54;95665.31;;;9.52;61.14
74270;BME280;62754;48.252;11.654;2023-03-23T01:15:20;95656.03;;;9.40;61.53
74270;BME280;62754;48.252;11.654;2023-03-23T01:17:47;95656.28;;;9.37;61.70
74270;BME280;62754;48.252;11.654;2023-03-23T01:20:14;95667.97;;;9.41;61.58
74270;BME280;62754;48.252;11.654;2023-03-23T01:22:42;95657.13;;;9.37;61.25
74270;BME280;62754;48.252;11.654;2023-03-23T01:25:09;95660.44;;;9.28;61.32
74270;BME280;62754;48.252;11.654;2023-03-23T01:27:35;95659.97;;;9.23;61.58
74270;BME280;62754;48.252;11.654;2023-03-23T01:30:02;95658.78;;;9.27;61.54
74270;BME280;62754;48.252;11.654;2023-03-23T01:32:28;95655.28;;;9.28;61.55
74270;BME280;62754;48.252;11.654;2023-03-23T01:34:54;95655.28;;;9.28;60.74
74270;BME280;62754;48.252;11.654;2023-03-23T01:37:20;95655.66;;;9.24;61.14
74270;BME280;62754;48.252;11.654;2023-03-23T01:39:45;95653.66;;;9.27;61.12
74270;BME280;62754;48.252;11.654;2023-03-23T01:42:11;95650.78;;;9.41;60.34
74270;BME280;62754;48.252;11.654;2023-03-23T01:47:03;95652.72;;;9.49;60.13
74270;BME280;62754;48.252;11.654;2023-03-23T01:49:36;95657.88;;;9.49;60.30
74270;BME280;62754;48.252;11.654;2023-03-23T01:52:11;95655.56;;;9.46;60.60
74270;BME280;62754;48.252;11.654;2023-03-23T01:54:39;95656.97;;;9.39;60.66
74270;BME280;62754;48.252;11.654;2023-03-23T01:57:09;95653.53;;;9.49;60.74
74270;BME280;62754;48.252;11.654;2023-03-23T01:59:35;95654.53;;;9.37;61.01
74270;BME280;62754;48.252;11.654;2023-03-23T02:02:01;95656.34;;;9.46;60.69
74270;BME280;62754;48.252;11.654;2023-03-23T02:04:28;95647.13;;;9.44;60.73
74270;BME280;62754;48.252;11.654;2023-03-23T02:06:55;95658.28;;;9.54;60.26
74270;BME280;62754;48.252;11.654;2023-03-23T02:09:22;95644.63;;;9.53;60.18
74270;BME280;62754;48.252;11.654;2023-03-23T02:11:48;95645.75;;;9.61;60.07
74270;BME280;62754;48.252;11.654;2023-03-23T02:14:14;95634.19;;;9.55;60.27
74270;BME280;62754;48.252;11.654;2023-03-23T02:17:09;95627.00;;;9.49;60.44
74270;BME280;62754;48.252;11.654;2023-03-23T02:22:48;95630.41;;;9.49;60.72
74270;BME280;62754;48.252;11.654;2023-03-23T02:28:26;95625.31;;;9.38;60.85
74270;BME280;62754;48.252;11.654;2023-03-23T02:31:09;95626.38;;;9.36;61.11
74270;BME280;62754;48.252;11.654;2023-03-23T02:34:03;95619.44;;;9.27;61.29
74270;BME280;62754;48.252;11.654;2023-03-23T02:39:10;95619.56;;;9.25;61.58
74270;BME280;62754;48.252;11.654;2023-03-23T02:42:08;95627.53;;;9.22;61.50
74270;BME280;62754;48.252;11.654;2023-03-23T02:44:38;95626.06;;;9.08;61.80
74270;BME280;62754;48.252;11.654;2023-03-23T02:47:09;95633.78;;;9.08;62.19
74270;BME280;62754;48.252;11.654;2023-03-23T02:49:37;95627.63;;;9.00;62.39
74270;BME280;62754;48.252;11.654;2023-03-23T02:52:09;95638.34;;;9.05;62.65
74270;BME280;62754;48.252;11.654;2023-03-23T02:54:36;95639.06;;;9.07;62.43
74270;BME280;62754;48.252;11.654;2023-03-23T02:57:02;95632.53;;;9.03;62.36
74270;BME280;62754;48.252;11.654;2023-03-23T02:59:28;95630.53;;;9.06;62.97
74270;BME280;62754;48.252;11.654;2023-03-23T03:02:07;95617.53;;;9.08;62.71
74270;BME280;62754;48.252;11.654;2023-03-23T03:04:36;95626.94;;;8.98;63.14
74270;BME280;62754;48.252;11.654;2023-03-23T03:20:25;95617.06;;;8.61;65.15
74270;BME280;62754;48.252;11.654;2023-03-23T03:22:52;95608.22;;;8.54;65.36
74270;BME280;62754;48.252;11.654;2023-03-23T03:25:19;95609.50;;;8.60;65.25
74270;BME280;62754;48.252;11.654;2023-03-23T03:27:47;95601.66;;;8.61;65.34
74270;BME280;62754;48.252;11.654;2023-03-23T03:30:16;95609.38;;;8.50;65.66
74270;BME280;62754;48.252;11.654;2023-03-23T03:32:48;95599.78;;;8.32;66.43
74270;BME280;62754;48.252;11.654;2023-03-23T03:35:15;95606.88;;;8.39;66.16
74270;BME280;62754;48.252;11.654;2023-03-23T03:37:42;95617.09;;;8.50;65.99
74270;BME280;62754;48.252;11.654;2023-03-23T03:40:18;95616.97;;;8.52;66.02
74270;BME280;62754;48.252;11.654;2023-03-23T03:42:45;95616.06;;;8.53;66.05
74270;BME280;62754;48.252;11.654;2023-03-23T03:45:16;95622.84;;;8.43;66.76
74270;BME280;62754;48.252;11.654;2023-03-23T03:47:42;95632.28;;;8.42;66.81
74270;BME280;62754;48.252;11.654;2023-03-23T03:50:09;95627.88;;;8.44;66.70
74270;BME280;62754;48.252;11.654;2023-03-23T03:52:35;95631.56;;;8.51;66.79
74270;BME280;62754;48.252;11.654;2023-03-23T03:55:01;95629.09;;;8.61;66.21
74270;BME280;62754;48.252;11.654;2023-03-23T03:57:26;95634.31;;;8.71;65.87
74270;BME280;62754;48.252;11.654;2023-03-23T03:59:52;95635.94;;;8.72;65.88
74270;BME280;62754;48.252;11.654;2023-03-23T04:02:18;95628.72;;;8.66;66.00
74270;BME280;62754;48.252;11.654;2023-03-23T04:04:44;95625.31;;;8.65;66.28
74270;BME280;62754;48.252;11.654;2023-03-23T04:07:10;95638.38;;;8.73;66.01
74270;BME280;62754;48.252;11.654;2023-03-23T04:09:36;95639.75;;;8.77;65.76
74270;BME280;62754;48.252;11.654;2023-03-23T04:12:02;95637.53;;;8.84;65.50
74270;BME280;62754;48.252;11.654;2023-03-23T04:14:27;95640.47;;;8.79;65.94
74270;BME280;62754;48.252;11.654;2023-03-23T04:16:53;95640.47;;;8.79;65.76
74270;BME280;62754;48.252;11.654;2023-03-23T04:19:19;95656.44;;;8.83;65.81
74270;BME280;62754;48.252;11.654;2023-03-23T04:21:45;95644.06;;;8.88;65.25
74270;BME280;62754;48.252;11.654;2023-03-23T04:24:10;95655.31;;;8.96;65.34
74270;BME280;62754;48.252;11.654;2023-03-23T04:26:36;95650.63;;;9.01;65.24
74270;BME280;62754;48.252;11.654;2023-03-23T04:29:02;95652.59;;;9.09;64.84
74270;BME280;62754;48.252;11.654;2023-03-23T04:31:28;95643.25;;;9.08;65.04
74270;BME280;62754;48.252;11.654;2023-03-23T04:33:53;95638.31;;;8.95;64.99
74270;BME280;62754;48.252;11.654;2023-03-23T04:36:19;95649.50;;;8.94;65.74
74270;BME280;62754;48.252;11.654;2023-03-23T04:38:45;95659.91;;;8.93;65.89
74270;BME280;62754;48.252;11.654;2023-03-23T04:41:11;95658.84;;;8.95;65.98
74270;BME280;62754;48.252;11.654;2023-03-23T04:43:37;95657.56;;;8.90;66.16
74270;BME280;62754;48.252;11.654;2023-03-23T04:46:03;95656.66;;;8.91;66.05
74270;BME280;62754;48.252;11.654;2023-03-23T04:48:29;95654.97;;;9.01;65.57
74270;BME280;62754;48.252;11.654;2023-03-23T04:50:55;95656.22;;;9.06;65.83
74270;BME280;62754;48.252;11.654;2023-03-23T04:53:21;95659.06;;;8.92;65.84
74270;BME280;62754;48.252;11.654;2023-03-23T04:55:47;95654.66;;;8.94;66.45
74270;BME280;62754;48.252;11.654;2023-03-23T04:58:13;95657.06;;;9.07;66.47
74270;BME280;62754;48.252;11.654;2023-03-23T05:00:40;95661.72;;;9.02;66.17
74270;BME280;62754;48.252;11.654;2023-03-23T05:03:06;95658.47;;;9.00;66.56
74270;BME280;62754;48.252;11.654;2023-03-23T05:05:31;95659.56;;;9.18;65.62
74270;BME280;62754;48.252;11.654;2023-03-23T05:07:57;95656.28;;;9.16;65.80
74270;BME280;62754;48.252;11.654;2023-03-23T05:10:24;95651.09;;;9.06;65.91
74270;BME280;62754;48.252;11.654;2023-03-23T05:12:50;95649.44;;;9.05;66.35
74270;BME280;62754;48.252;11.654;2023-03-23T05:15:16;95657.16;;;9.05;66.43
74270;BME280;62754;48.252;11.654;2023-03-23T05:17:42;95662.41;;;9.04;66.43
74270;BME280;62754;48.252;11.654;2023-03-23T05:20:10;95660.34;;;8.98;67.10
74270;BME280;62754;48.252;11.654;2023-03-23T05:22:37;95665.59;;;8.96;67.26
74270;BME280;62754;48.252;11.654;2023-03-23T05:25:04;95668.78;;;8.89;67.93
74270;BME280;62754;48.252;11.654;2023-03-23T05:27:31;95668.94;;;9.08;66.98
74270;BME280;62754;48.252;11.654;2023-03-23T05:29:57;95675.16;;;9.05;67.28
74270;BME280;62754;48.252;11.654;2023-03-23T05:32:22;95680.78;;;9.20;66.25
74270;BME280;62754;48.252;11.654;2023-03-23T05:34:48;95682.50;;;9.31;65.50
74270;BME280;62754;48.252;11.654;2023-03-23T05:37:14;95676.09;;;9.25;65.42
74270;BME280;62754;48.252;11.654;2023-03-23T05:39:40;95686.59;;;9.33;65.48
74270;BME280;62754;48.252;11.654;2023-03-23T05:42:05;95686.78;;;9.41;65.00
74270;BME280;62754;48.252;11.654;2023-03-23T05:44:31;95702.06;;;9.43;64.83
74270;BME280;62754;48.252;11.654;2023-03-23T05:46:57;95701.63;;;9.58;64.56
74270;BME280;62754;48.252;11.654;2023-03-23T05:49:23;95684.31;;;9.61;64.29
74270;BME280;62754;48.252;11.654;2023-03-23T05:51:48;95675.44;;;9.74;63.98
74270;BME280;62754;48.252;11.654;2023-03-23T05:54:14;95648.25;;;9.81;63.53
74270;BME280;62754;48.252;11.654;2023-03-23T05:56:40;95634.66;;;9.70;64.96
74270;BME280;62754;48.252;11.654;2023-03-23T05:59:06;95629.19;;;9.84;64.07
74270;BME280;62754;48.252;11.654;2023-03-23T06:01:32;95624.59;;;9.87;63.69
74270;BME280;62754;48.252;11.654;2023-03-23T06:03:58;95617.75;;;10.07;63.42
74270;BME280;62754;48.252;11.654;2023-03-23T06:06:25;95619.13;;;10.11;62.82
74270;BME280;62754;48.252;11.654;2023-03-23T06:08:51;95606.13;;;10.13;62.83
74270;BME280;62754;48.252;11.654;2023-03-23T06:11:17;95612.81;;;10.25;61.86
74270;BME280;62754;48.252;11.654;2023-03-23T06:13:43;95611.63;;;10.38;61.42
74270;BME280;62754;48.252;11.654;2023-03-23T06:16:09;95610.00;;;10.47;61.38
74270;BME280;62754;48.252;11.654;2023-03-23T06:18:35;95607.84;;;10.42;61.52
74270;BME280;62754;48.252;11.654;2023-03-23T06:21:00;95608.13;;;10.49;61.36
74270;BME280;62754;48.252;11.654;2023-03-23T06:23:26;95607.84;;;10.52;61.38
74270;BME280;62754;48.252;11.654;2023-03-23T06:25:59;95609.47;;;10.63;60.92
74270;BME280;62754;48.252;11.654;2023-03-23T06:28:25;95623.88;;;10.65;60.94
74270;BME280;62754;48.252;11.654;2023-03-23T06:30:51;95617.91;;;10.65;61.16
74270;BME280;62754;48.252;11.654;2023-03-23T06:33:17;95615.72;;;10.60;61.25
74270;BME280;62754;48.252;11.654;2023-03-23T06:35:43;95631.06;;;10.62;61.42
74270;BME280;62754;48.252;11.654;2023-03-23T06:38:09;95633.34;;;10.55;61.62
74270;BME280;62754;48.252;11.654;2023-03-23T06:40:35;95634.84;;;10.67;61.52
74270;BME280;62754;48.252;11.654;2023-03-23T06:43:00;95630.38;;;10.69;61.57
74270;BME280;62754;48.252;11.654;2023-03-23T06:45:26;95638.81;;;10.81;61.29
74270;BME280;62754;48.252;11.654;2023-03-23T06:47:52;95647.59;;;10.78;60.89
74270;BME280;62754;48.252;11.654;2023-03-23T06:50:18;95648.69;;;10.76;61.21
74270;BME280;62754;48.252;11.654;2023-03-23T06:52:47;95642.59;;;10.77;61.59
74270;BME280;62754;48.252;11.654;2023-03-23T06:55:15;95639.03;;;10.97;60.85
74270;BME280;62754;48.252;11.654;2023-03-23T06:57:41;95634.19;;;11.04;60.09
74270;BME280;62754;48.252;11.654;2023-03-23T07:00:07;95623.72;;;11.15;59.45
74270;BME280;62754;48.252;11.654;2023-03-23T07:02:33;95626.41;;;11.32;59.18
74270;BME280;62754;48.252;11.654;2023-03-23T07:04:59;95620.25;;;11.43;58.36
74270;BME280;62754;48.252;11.654;2023-03-23T07:07:25;95626.72;;;11.76;57.18
74270;BME280;62754;48.252;11.654;2023-03-23T07:09:51;95619.75;;;11.86;56.86
74270;BME280;62754;48.252;11.654;2023-03-23T07:12:17;95617.78;;;12.07;55.86
74270;BME280;62754;48.252;11.654;2023-03-23T07:14:42;95616.44;;;12.30;55.16
74270;BME280;62754;48.252;11.654;2023-03-23T07:17:08;95624.19;;;12.48;54.82
74270;BME280;62754;48.252;11.654;2023-03-23T07:19:34;95626.44;;;12.78;54.17
74270;BME280;62754;48.252;11.654;2023-03-23T07:21:59;95627.19;;;12.88;53.98
74270;BME280;62754;48.252;11.654;2023-03-23T07:24:25;95629.63;;;13.08;53.56
74270;BME280;62754;48.252;11.654;2023-03-23T07:26:51;95628.97;;;13.23;53.01
74270;BME280;62754;48.252;11.654;2023-03-23T07:29:17;95627.34;;;13.48;52.59
74270;BME280;62754;48.252;11.654;2023-03-23T07:31:43;95617.66;;;13.50;51.89
74270;BME280;62754;48.252;11.654;2023-03-23T07:34:09;95620.81;;;13.62;51.55
74270;BME280;62754;48.252;11.654;2023-03-23T07:36:34;95620.19;;;13.94;51.00
74270;BME280;62754;48.252;11.654;2023-03-23T07:39:00;95630.09;;;14.06;50.52
74270;BME280;62754;48.252;11.654;2023-03-23T07:41:26;95628.63;;;14.38;49.05
74270;BME280;62754;48.252;11.654;2023-03-23T07:43:52;95629.31;;;14.40;49.55
74270;BME280;62754;48.252;11.654;2023-03-23T07:46:17;95631.28;;;14.54;48.62
74270;BME280;62754;48.252;11.654;2023-03-23T07:48:43;95631.03;;;14.81;47.84
74270;BME280;62754;48.252;11.654;2023-03-23T07:51:09;95630.88;;;14.83;48.04
74270;BME280;62754;48.252;11.654;2023-03-23T07:53:35;95625.81;;;14.73;47.46
74270;BME280;62754;48.252;11.654;2023-03-23T07:56:00;95633.44;;;14.91;46.59
74270;BME280;62754;48.252;11.654;2023-03-23T07:58:26;95626.34;;;14.93;46.79
74270;BME280;62754;48.252;11.654;2023-03-23T08:00:52;95634.25;;;14.83;47.20
74270;BME280;62754;48.252;11.654;2023-03-23T08:03:18;95626.81;;;14.88;47.22
74270;BME280;62754;48.252;11.654;2023-03-23T08:05:44;95621.94;;;14.85;47.04
74270;BME280;62754;48.252;11.654;2023-03-23T08:08:09;95629.56;;;14.95;47.07
74270;BME280;62754;48.252;11.654;2023-03-23T08:10:36;95627.63;;;14.97;47.11
74270;BME280;62754;48.252;11.654;2023-03-23T08:13:02;95629.69;;;14.69;48.53
74270;BME280;62754;48.252;11.654;2023-03-23T08:15:28;95634.56;;;14.80;48.45
74270;BME280;62754;48.252;11.654;2023-03-23T08:17:54;95640.09;;;14.77;48.40
74270;BME280;62754;48.252;11.654;2023-03-23T08:20:21;95635.53;;;14.79;48.49
74270;BME280;62754;48.252;11.654;2023-03-23T08:22:52;95634.25;;;14.75;48.89
74270;BME280;62754;48.252;11.654;2023-03-23T08:25:19;95634.25;;;14.75;48.64
74270;BME280;62754;48.252;11.654;2023-03-23T08:27:45;95638.78;;;14.73;48.98
74270;BME280;62754;48.252;11.654;2023-03-23T08:30:13;95637.66;;;14.75;49.38
74270;BME280;62754;48.252;11.654;2023-03-23T08:32:39;95640.06;;;14.69;49.23
74270;BME280;62754;48.252;11.654;2023-03-23T08:35:06;95643.16;;;14.81;48.85
74270;BME280;62754;48.252;11.654;2023-03-23T08:37:32;95642.72;;;14.93;48.49
74270;BME280;62754;48.252;11.654;2023-03-23T08:39:57;95645.47;;;15.00;48.43
74270;BME280;62754;48.252;11.654;2023-03-23T08:42:24;95653.28;;;15.24;47.85
74270;BME280;62754;48.252;11.654;2023-03-23T08:44:51;95658.78;;;15.37;47.46
74270;BME280;62754;48.252;11.654;2023-03-23T08:47:16;95650.34;;;15.43;47.29
74270;BME280;62754;48.252;11.654;2023-03-23T08:49:42;95657.66;;;15.48;47.30
74270;BME280;62754;48.252;11.654;2023-03-23T08:52:09;95659.94;;;15.43;46.99
74270;BME280;62754;48.252;11.654;2023-03-23T08:54:35;95662.06;;;15.63;46.91
74270;BME280;62754;48.252;11.654;2023-03-23T08:57:01;95657.03;;;15.54;46.67
74270;BME280;62754;48.252;11.654;2023-03-23T08:59:27;95650.03;;;15.79;46.25
74270;BME280;62754;48.252;11.654;2023-03-23T09:01:54;95662.66;;;15.98;45.69
74270;BME280;62754;48.252;11.654;2023-03-23T09:04:20;95664.41;;;16.05;45.04
74270;BME280;62754;48.252;11.654;2023-03-23T09:06:46;95663.81;;;16.34;44.96
74270;BME280;62754;48.252;11.654;2023-03-23T09:09:19;95667.56;;;16.79;44.10
74270;BME280;62754;48.252;11.654;2023-03-23T09:11:44;95670.97;;;16.79;44.05
74270;BME280;62754;48.252;11.654;2023-03-23T09:14:10;95674.75;;;16.99;42.19
74270;BME280;62754;48.252;11.654;2023-03-23T09:16:36;95678.41;;;17.36;41.50
74270;BME280;62754;48.252;11.654;2023-03-23T09:19:02;95687.66;;;17.61;40.21
74270;BME280;62754;48.252;11.654;2023-03-23T09:21:28;95689.56;;;18.19;38.72
74270;BME280;62754;48.252;11.654;2023-03-23T09:23:55;95682.91;;;18.02;38.98
74270;BME280;62754;48.252;11.654;2023-03-23T09:26:21;95690.19;;;18.06;39.34
74270;BME280;62754;48.252;11.654;2023-03-23T09:28:46;95698.66;;;18.38;37.97
74270;BME280;62754;48.252;11.654;2023-03-23T09:31:12;95680.22;;;18.54;37.09
74270;BME280;62754;48.252;11.654;2023-03-23T09:33:38;95691.97;;;18.50;37.26
74270;BME280;62754;48.252;11.654;2023-03-23T09:36:04;95689.19;;;18.81;35.74
74270;BME280;62754;48.252;11.654;2023-03-23T09:38:31;95696.09;;;19.03;35.64
74270;BME280;62754;48.252;11.654;2023-03-23T09:43:46;95689.22;;;19.02;34.99
74270;BME280;62754;48.252;11.654;2023-03-23T09:46:31;95699.31;;;19.05;35.25
74270;BME280;62754;48.252;11.654;2023-03-23T09:49:02;95679.09;;;19.77;34.97
74270;BME280;62754;48.252;11.654;2023-03-23T09:56:58;95677.94;;;19.59;33.95
74270;BME280;62754;48.252;11.654;2023-03-23T10:04:38;95688.78;;;19.56;34.07
74270;BME280;62754;48.252;11.654;2023-03-23T10:07:15;95688.56;;;19.78;33.45
74270;BME280;62754;48.252;11.654;2023-03-23T10:09:44;95695.63;;;19.57;33.99
74270;BME280;62754;48.252;11.654;2023-03-23T10:15:00;95702.19;;;19.31;34.43
74270;BME280;62754;48.252;11.654;2023-03-23T10:17:28;95698.94;;;19.08;34.92
74270;BME280;62754;48.252;11.654;2023-03-23T10:22:39;95696.66;;;18.69;35.08
74270;BME280;62754;48.252;11.654;2023-03-23T10:25:15;95701.00;;;18.62;36.47
74270;BME280;62754;48.252;11.654;2023-03-23T10:30:27;95702.91;;;18.53;36.33
74270;BME280;62754;48.252;11.654;2023-03-23T10:33:08;95697.22;;;18.21;36.32
74270;BME280;62754;48.252;11.654;2023-03-23T10:35:39;95697.56;;;18.18;36.18
74270;BME280;62754;48.252;11.654;2023-03-23T10:38:14;95695.78;;;18.33;36.29
74270;BME280;62754;48.252;11.654;2023-03-23T10:40:49;95702.72;;;18.26;36.63
74270;BME280;62754;48.252;11.654;2023-03-23T10:43:15;95694.31;;;18.16;37.05
74270;BME280;62754;48.252;11.654;2023-03-23T10:45:44;95694.47;;;17.85;36.87
74270;BME280;62754;48.252;11.654;2023-03-23T10:48:25;95692.66;;;17.71;37.21
74270;BME280;62754;48.252;11.654;2023-03-23T10:50:54;95689.97;;;17.79;37.59
74270;BME280;62754;48.252;11.654;2023-03-23T10:53:26;95690.44;;;17.82;36.94
74270;BME280;62754;48.252;11.654;2023-03-23T10:55:56;95693.94;;;17.89;37.13
74270;BME280;62754;48.252;11.654;2023-03-23T10:58:25;95683.56;;;17.67;37.50
74270;BME280;62754;48.252;11.654;2023-03-23T11:00:51;95691.84;;;17.85;38.59
74270;BME280;62754;48.252;11.654;2023-03-23T11:05:53;95684.44;;;17.59;38.56
74270;BME280;62754;48.252;11.654;2023-03-23T11:08:24;95697.03;;;17.70;38.47
74270;BME280;62754;48.252;11.654;2023-03-23T11:10:55;95692.28;;;17.74;38.67
74270;BME280;62754;48.252;11.654;2023-03-23T11:13:27;95690.91;;;18.00;39.44
74270;BME280;62754;48.252;11.654;2023-03-23T11:15:53;95692.66;;;17.85;38.35
74270;BME280;62754;48.252;11.654;2023-03-23T11:18:21;95697.34;;;17.90;38.83
74270;BME280;62754;48.252;11.654;2023-03-23T11:20:57;95703.03;;;17.93;38.60
74270;BME280;62754;48.252;11.654;2023-03-23T11:23:36;95690.97;;;17.92;39.02
74270;BME280;62754;48.252;11.654;2023-03-23T11:26:22;95701.16;;;18.17;38.55
74270;BME280;62754;48.252;11.654;2023-03-23T11:31:33;95692.28;;;18.11;38.14
74270;BME280;62754;48.252;11.654;2023-03-23T12:09:20;95672.28;;;19.34;35.76
74270;BME280;62754;48.252;11.654;2023-03-23T12:17:42;95667.38;;;20.22;34.59
74270;BME280;62754;48.252;11.654;2023-03-23T12:23:10;95651.97;;;20.34;33.44
74270;BME280;62754;48.252;11.654;2023-03-23T12:39:35;95667.88;;;19.56;35.05
74270;BME280;62754;48.252;11.654;2023-03-23T12:48:02;95648.56;;;19.35;35.16
74270;BME280;62754;48.252;11.654;2023-03-23T12:50:35;95646.28;;;19.26;35.72
74270;BME280;62754;48.252;11.654;2023-03-23T12:53:21;95655.50;;;19.22;35.90
74270;BME280;62754;48.252;11.654;2023-03-23T12:56:18;95647.59;;;19.15;35.97
74270;BME280;62754;48.252;11.654;2023-03-23T12:58:48;95654.84;;;18.98;36.56
74270;BME280;62754;48.252;11.654;2023-03-23T13:01:30;95647.63;;;18.79;36.95
74270;BME280;62754;48.252;11.654;2023-03-23T13:04:01;95643.69;;;18.69;37.26
74270;BME280;62754;48.252;11.654;2023-03-23T13:06:39;95639.91;;;18.92;38.03
74270;BME280;62754;48.252;11.654;2023-03-23T13:11:41;95636.91;;;19.10;38.16
74270;BME280;62754;48.252;11.654;2023-03-23T13:16:44;95637.09;;;19.30;38.19
74270;BME280;62754;48.252;11.654;2023-03-23T13:22:21;95636.69;;;19.12;37.46
74270;BME280;62754;48.252;11.654;2023-03-23T13:24:57;95636.66;;;19.26;37.06
74270;BME280;62754;48.252;11.654;2023-03-23T13:27:28;95626.75;;;19.43;38.70
74270;BME280;62754;48.252;11.654;2023-03-23T13:29:55;95631.22;;;19.28;37.08
74270;BME280;62754;48.252;11.654;2023-03-23T13:32:44;95633.41;;;19.24;38.13
74270;BME280;62754;48.252;11.654;2023-03-23T13:35:13;95622.19;;;19.73;37.07
74270;BME280;62754;48.252;11.654;2023-03-23T13:37:47;95630.09;;;20.20;35.95
74270;BME280;62754;48.252;11.654;2023-03-23T13:40:26;95636.81;;;19.95;36.71
74270;BME280;62754;48.252;11.654;2023-03-23T13:42:55;95636.97;;;20.21;36.16
74270;BME280;62754;48.252;11.654;2023-03-23T13:45:43;95629.69;;;20.51;34.97
74270;BME280;62754;48.252;11.654;2023-03-23T13:50:49;95623.03;;;20.42;35.43
74270;BME280;62754;48.252;11.654;2023-03-23T13:53:24;95626.25;;;20.16;35.60
74270;BME280;62754;48.252;11.654;2023-03-23T13:56:02;95628.06;;;19.54;36.42
74270;BME280;62754;48.252;11.654;2023-03-23T13:58:28;95631.97;;;19.22;38.08
74270;BME280;62754;48.252;11.654;2023-03-23T14:01:13;95636.75;;;18.97;37.10
74270;BME280;62754;48.252;11.654;2023-03-23T14:03:40;95631.97;;;18.50;38.23
74270;BME280;62754;48.252;11.654;2023-03-23T14:06:14;95624.06;;;18.73;38.57
74270;BME280;62754;48.252;11.654;2023-03-23T14:08:45;95630.38;;;18.49;38.79
74270;BME280;62754;48.252;11.654;2023-03-23T14:11:16;95630.06;;;18.73;38.45
74270;BME280;62754;48.252;11.654;2023-03-23T14:16:36;95626.69;;;18.73;37.75
74270;BME280;62754;48.252;11.654;2023-03-23T14:19:04;95630.53;;;18.62;37.87
74270;BME280;62754;48.252;11.654;2023-03-23T14:21:41;95627.66;;;18.72;37.77
74270;BME280;62754;48.252;11.654;2023-03-23T14:24:19;95615.09;;;18.61;38.26
74270;BME280;62754;48.252;11.654;2023-03-23T14:26:45;95618.91;;;18.79;37.51
74270;BME280;62754;48.252;11.654;2023-03-23T14:29:12;95612.00;;;18.42;38.96
74270;BME280;62754;48.252;11.654;2023-03-23T14:31:39;95610.41;;;18.27;38.38
74270;BME280;62754;48.252;11.654;2023-03-23T14:34:14;95609.34;;;18.21;38.18
74270;BME280;62754;48.252;11.654;2023-03-23T14:36:41;95616.25;;;18.43;38.20
74270;BME280;62754;48.252;11.654;2023-03-23T14:39:17;95612.13;;;18.49;38.81
74270;BME280;62754;48.252;11.654;2023-03-23T14:41:43;95620.28;;;18.46;38.65
74270;BME280;62754;48.252;11.654;2023-03-23T14:44:13;95619.59;;;18.08;38.65
74270;BME280;62754;48.252;11.654;2023-03-23T14:46:42;95623.03;;;18.08;38.96
74270;BME280;62754;48.252;11.654;2023-03-23T14:49:16;95623.03;;;17.94;39.42
74270;BME280;62754;48.252;11.654;2023-03-23T14:51:53;95612.47;;;17.73;39.90
74270;BME280;62754;48.252;11.654;2023-03-23T14:54:27;95614.63;;;17.69;40.26
74270;BME280;62754;48.252;11.654;2023-03-23T14:56:54;95624.91;;;17.48;40.09
74270;BME280;62754;48.252;11.654;2023-03-23T14:59:23;95610.84;;;17.34;40.69
74270;BME280;62754;48.252;11.654;2023-03-23T15:01:50;95627.44;;;17.41;40.61
74270;BME280;62754;48.252;11.654;2023-03-23T15:04:24;95631.00;;;17.40;40.85
74270;BME280;62754;48.252;11.654;2023-03-23T15:07:02;95625.69;;;17.34;40.68
74270;BME280;62754;48.252;11.654;2023-03-23T15:09:28;95625.13;;;17.24;40.45
74270;BME280;62754;48.252;11.654;2023-03-23T15:11:56;95624.03;;;17.18;41.43
74270;BME280;62754;48.252;11.654;2023-03-23T15:14:29;95623.50;;;17.23;41.80